sensor_id;sensor_type;location;lat;lon;timestamp;P1;durP1;ratioP1;P2;durP2;ratioP2
44130;SDS011;29792;48.726;9.248;2023-04-06T00:00:57;10.05;;;7.10;;
44130;SDS011;29792;48.726;9.248;2023-04-06T00:03:23;10.63;;;8.27;;
44130;SDS011;29792;48.726;9.248;2023-04-06T00:05:48;11.30;;;9.55;;
44130;SDS011;29792;48.726;9.248;2023-04-06T00:08:13;12.00;;;8.57;;
44130;SDS011;29792;48.726;9.248;2023-04-06T00:10:39;9.60;;;8.60;;
44130;SDS011;29792;48.726;9.248;2023-04-06T00:13:04;10.75;;;8.00;;
44130;SDS011;29792;48.726;9.248;2023-04-06T00:15:30;12.57;;;9.07;;
44130;SDS011;29792;48.726;9.248;2023-04-06T00:17:55;11.70;;;7.95;;
44130;SDS011;29792;48.726;9.248;2023-04-06T00:20:21;10.93;;;8.70;;
44130;SDS011;29792;48.726;9.248;2023-04-06T00:22:46;11.18;;;9.25;;
44130;SDS011;29792;48.726;9.248;2023-04-06T00:25:11;9.18;;;7.70;;
44130;SDS011;29792;48.726;9.248;2023-04-06T00:27:37;8.95;;;7.32;;
44130;SDS011;29792;48.726;9.248;2023-04-06T00:30:06;11.40;;;8.45;;
44130;SDS011;29792;48.726;9.248;2023-04-06T00:32:32;9.23;;;8.00;;
44130;SDS011;29792;48.726;9.248;2023-04-06T00:34:58;10.88;;;7.78;;
44130;SDS011;29792;48.726;9.248;2023-04-06T00:37:24;12.00;;;9.55;;
44130;SDS011;29792;48.726;9.248;2023-04-06T00:39:49;10.95;;;7.80;;
44130;SDS011;29792;48.726;9.248;2023-04-06T00:42:16;10.60;;;7.90;;
44130;SDS011;29792;48.726;9.248;2023-04-06T00:44:50;14.20;;;8.73;;
44130;SDS011;29792;48.726;9.248;2023-04-06T00:47:15;11.75;;;8.23;;
44130;SDS011;29792;48.726;9.248;2023-04-06T00:49:40;10.40;;;7.60;;
44130;SDS011;29792;48.726;9.248;2023-04-06T00:52:05;10.27;;;7.93;;
44130;SDS011;29792;48.726;9.248;2023-04-06T00:54:31;9.43;;;8.23;;
44130;SDS011;29792;48.726;9.248;2023-04-06T00:56:56;10.55;;;8.82;;
44130;SDS011;29792;48.726;9.248;2023-04-06T00:59:22;10.95;;;7.30;;
44130;SDS011;29792;48.726;9.248;2023-04-06T01:01:47;11.20;;;8.18;;
44130;SDS011;29792;48.726;9.248;2023-04-06T01:04:13;10.88;;;8.52;;
44130;SDS011;29792;48.726;9.248;2023-04-06T01:06:38;11.75;;;9.15;;
44130;SDS011;29792;48.726;9.248;2023-04-06T01:09:03;8.68;;;7.38;;
44130;SDS011;29792;48.726;9.248;2023-04-06T01:11:29;9.43;;;7.40;;
44130;SDS011;29792;48.726;9.248;2023-04-06T01:13:54;11.23;;;8.00;;
44130;SDS011;29792;48.726;9.248;2023-04-06T01:16:20;10.27;;;8.55;;
44130;SDS011;29792;48.726;9.248;2023-04-06T01:18:45;13.90;;;9.75;;
44130;SDS011;29792;48.726;9.248;2023-04-06T01:21:10;12.13;;;9.57;;
44130;SDS011;29792;48.726;9.248;2023-04-06T01:23:41;12.70;;;8.30;;
44130;SDS011;29792;48.726;9.248;2023-04-06T01:26:08;11.77;;;9.70;;
44130;SDS011;29792;48.726;9.248;2023-04-06T01:28:33;14.23;;;10.30;;
44130;SDS011;29792;48.726;9.248;2023-04-06T01:30:58;9.40;;;7.80;;
44130;SDS011;29792;48.726;9.248;2023-04-06T01:33:24;10.02;;;8.18;;
44130;SDS011;29792;48.726;9.248;2023-04-06T01:35:49;9.50;;;7.20;;
44130;SDS011;29792;48.726;9.248;2023-04-06T01:38:14;11.15;;;8.07;;
44130;SDS011;29792;48.726;9.248;2023-04-06T01:40:40;13.75;;;9.65;;
44130;SDS011;29792;48.726;9.248;2023-04-06T01:43:05;14.82;;;9.73;;
44130;SDS011;29792;48.726;9.248;2023-04-06T01:45:31;12.68;;;9.25;;
44130;SDS011;29792;48.726;9.248;2023-04-06T01:47:56;12.95;;;8.60;;
44130;SDS011;29792;48.726;9.248;2023-04-06T01:50:21;11.90;;;8.27;;
44130;SDS011;29792;48.726;9.248;2023-04-06T01:52:47;12.82;;;8.90;;
44130;SDS011;29792;48.726;9.248;2023-04-06T01:55:12;11.88;;;8.43;;
44130;SDS011;29792;48.726;9.248;2023-04-06T01:57:37;15.48;;;9.95;;
44130;SDS011;29792;48.726;9.248;2023-04-06T02:00:03;11.82;;;8.40;;
44130;SDS011;29792;48.726;9.248;2023-04-06T02:02:28;13.07;;;9.48;;
44130;SDS011;29792;48.726;9.248;2023-04-06T02:04:54;11.68;;;10.20;;
44130;SDS011;29792;48.726;9.248;2023-04-06T02:07:19;12.05;;;8.23;;
44130;SDS011;29792;48.726;9.248;2023-04-06T02:09:44;14.20;;;10.00;;
44130;SDS011;29792;48.726;9.248;2023-04-06T02:12:09;11.80;;;8.07;;
44130;SDS011;29792;48.726;9.248;2023-04-06T02:14:35;12.93;;;9.15;;
44130;SDS011;29792;48.726;9.248;2023-04-06T02:17:00;12.30;;;9.38;;
44130;SDS011;29792;48.726;9.248;2023-04-06T02:19:25;13.70;;;9.85;;
44130;SDS011;29792;48.726;9.248;2023-04-06T02:21:51;10.70;;;9.02;;
44130;SDS011;29792;48.726;9.248;2023-04-06T02:24:16;11.93;;;9.38;;
44130;SDS011;29792;48.726;9.248;2023-04-06T02:26:41;11.55;;;9.95;;
44130;SDS011;29792;48.726;9.248;2023-04-06T02:29:06;13.23;;;9.63;;
44130;SDS011;29792;48.726;9.248;2023-04-06T02:31:32;12.65;;;9.23;;
44130;SDS011;29792;48.726;9.248;2023-04-06T02:33:57;12.77;;;9.73;;
44130;SDS011;29792;48.726;9.248;2023-04-06T02:36:22;12.00;;;8.82;;
44130;SDS011;29792;48.726;9.248;2023-04-06T02:38:47;12.48;;;8.13;;
44130;SDS011;29792;48.726;9.248;2023-04-06T02:41:13;11.82;;;8.95;;
44130;SDS011;29792;48.726;9.248;2023-04-06T02:43:38;13.00;;;8.32;;
44130;SDS011;29792;48.726;9.248;2023-04-06T02:46:03;17.25;;;10.10;;
44130;SDS011;29792;48.726;9.248;2023-04-06T02:48:28;11.32;;;8.35;;
44130;SDS011;29792;48.726;9.248;2023-04-06T02:50:54;14.95;;;11.38;;
44130;SDS011;29792;48.726;9.248;2023-04-06T02:53:19;9.90;;;8.18;;
44130;SDS011;29792;48.726;9.248;2023-04-06T02:55:44;12.45;;;9.07;;
44130;SDS011;29792;48.726;9.248;2023-04-06T02:58:10;11.98;;;8.70;;
44130;SDS011;29792;48.726;9.248;2023-04-06T03:00:35;15.35;;;10.02;;
44130;SDS011;29792;48.726;9.248;2023-04-06T03:03:02;14.05;;;9.10;;
44130;SDS011;29792;48.726;9.248;2023-04-06T03:05:27;12.65;;;10.55;;
44130;SDS011;29792;48.726;9.248;2023-04-06T03:07:52;10.35;;;8.02;;
44130;SDS011;29792;48.726;9.248;2023-04-06T03:10:17;10.98;;;9.25;;
44130;SDS011;29792;48.726;9.248;2023-04-06T03:12:42;11.55;;;9.23;;
44130;SDS011;29792;48.726;9.248;2023-04-06T03:15:08;11.48;;;8.55;;
44130;SDS011;29792;48.726;9.248;2023-04-06T03:17:34;12.43;;;9.18;;
44130;SDS011;29792;48.726;9.248;2023-04-06T03:19:59;12.75;;;9.48;;
44130;SDS011;29792;48.726;9.248;2023-04-06T03:22:25;10.70;;;9.13;;
44130;SDS011;29792;48.726;9.248;2023-04-06T03:24:50;16.05;;;10.27;;
44130;SDS011;29792;48.726;9.248;2023-04-06T03:27:15;17.50;;;10.30;;
44130;SDS011;29792;48.726;9.248;2023-04-06T03:29:40;13.05;;;9.52;;
44130;SDS011;29792;48.726;9.248;2023-04-06T03:32:06;11.68;;;8.68;;
44130;SDS011;29792;48.726;9.248;2023-04-06T03:34:31;11.00;;;8.63;;
44130;SDS011;29792;48.726;9.248;2023-04-06T03:36:56;14.18;;;11.02;;
44130;SDS011;29792;48.726;9.248;2023-04-06T03:39:21;9.65;;;8.00;;
44130;SDS011;29792;48.726;9.248;2023-04-06T03:41:47;14.15;;;11.73;;
44130;SDS011;29792;48.726;9.248;2023-04-06T03:44:12;11.90;;;9.45;;
44130;SDS011;29792;48.726;9.248;2023-04-06T03:46:37;13.98;;;10.80;;
44130;SDS011;29792;48.726;9.248;2023-04-06T03:49:02;16.50;;;11.20;;
44130;SDS011;29792;48.726;9.248;2023-04-06T03:51:27;13.38;;;8.63;;
44130;SDS011;29792;48.726;9.248;2023-04-06T03:53:53;15.07;;;9.68;;
44130;SDS011;29792;48.726;9.248;2023-04-06T03:56:18;12.95;;;9.90;;
44130;SDS011;29792;48.726;9.248;2023-04-06T03:58:43;15.50;;;11.20;;
44130;SDS011;29792;48.726;9.248;2023-04-06T04:01:10;15.07;;;10.52;;
44130;SDS011;29792;48.726;9.248;2023-04-06T04:03:35;12.93;;;9.73;;
44130;SDS011;29792;48.726;9.248;2023-04-06T04:06:00;13.93;;;10.07;;
44130;SDS011;29792;48.726;9.248;2023-04-06T04:08:26;12.57;;;8.65;;
44130;SDS011;29792;48.726;9.248;2023-04-06T04:10:51;13.75;;;9.45;;
44130;SDS011;29792;48.726;9.248;2023-04-06T04:13:16;15.77;;;10.15;;
44130;SDS011;29792;48.726;9.248;2023-04-06T04:15:42;17.33;;;10.75;;
44130;SDS011;29792;48.726;9.248;2023-04-06T04:18:07;18.95;;;10.85;;
44130;SDS011;29792;48.726;9.248;2023-04-06T04:20:32;11.77;;;9.15;;
44130;SDS011;29792;48.726;9.248;2023-04-06T04:22:57;14.02;;;9.73;;
44130;SDS011;29792;48.726;9.248;2023-04-06T04:25:23;12.27;;;8.25;;
44130;SDS011;29792;48.726;9.248;2023-04-06T04:27:48;11.07;;;8.80;;
44130;SDS011;29792;48.726;9.248;2023-04-06T04:30:13;15.07;;;10.02;;
44130;SDS011;29792;48.726;9.248;2023-04-06T04:32:39;14.40;;;9.20;;
44130;SDS011;29792;48.726;9.248;2023-04-06T04:35:04;10.93;;;9.43;;
44130;SDS011;29792;48.726;9.248;2023-04-06T04:37:30;10.63;;;8.52;;
44130;SDS011;29792;48.726;9.248;2023-04-06T04:39:55;16.15;;;10.10;;
44130;SDS011;29792;48.726;9.248;2023-04-06T04:42:20;13.95;;;10.05;;
44130;SDS011;29792;48.726;9.248;2023-04-06T04:44:46;15.80;;;10.57;;
44130;SDS011;29792;48.726;9.248;2023-04-06T04:47:11;15.18;;;11.48;;
44130;SDS011;29792;48.726;9.248;2023-04-06T04:49:36;10.88;;;9.10;;
44130;SDS011;29792;48.726;9.248;2023-04-06T04:52:01;14.82;;;9.60;;
44130;SDS011;29792;48.726;9.248;2023-04-06T04:54:27;13.07;;;10.13;;
44130;SDS011;29792;48.726;9.248;2023-04-06T04:56:52;13.55;;;9.90;;
44130;SDS011;29792;48.726;9.248;2023-04-06T04:59:17;16.13;;;9.93;;
44130;SDS011;29792;48.726;9.248;2023-04-06T05:01:42;14.68;;;9.57;;
44130;SDS011;29792;48.726;9.248;2023-04-06T05:04:08;11.63;;;8.93;;
44130;SDS011;29792;48.726;9.248;2023-04-06T05:06:33;12.68;;;9.77;;
44130;SDS011;29792;48.726;9.248;2023-04-06T05:08:58;12.85;;;9.38;;
44130;SDS011;29792;48.726;9.248;2023-04-06T05:11:23;14.20;;;9.00;;
44130;SDS011;29792;48.726;9.248;2023-04-06T05:13:50;10.88;;;7.97;;
44130;SDS011;29792;48.726;9.248;2023-04-06T05:16:15;15.13;;;10.48;;
44130;SDS011;29792;48.726;9.248;2023-04-06T05:18:41;14.00;;;9.45;;
44130;SDS011;29792;48.726;9.248;2023-04-06T05:21:06;16.90;;;10.70;;
44130;SDS011;29792;48.726;9.248;2023-04-06T05:23:32;13.38;;;8.70;;
44130;SDS011;29792;48.726;9.248;2023-04-06T05:25:57;14.57;;;10.95;;
44130;SDS011;29792;48.726;9.248;2023-04-06T05:28:22;12.05;;;9.15;;
44130;SDS011;29792;48.726;9.248;2023-04-06T05:30:48;14.20;;;9.50;;
44130;SDS011;29792;48.726;9.248;2023-04-06T05:33:13;12.35;;;9.02;;
44130;SDS011;29792;48.726;9.248;2023-04-06T05:35:38;14.25;;;10.30;;
44130;SDS011;29792;48.726;9.248;2023-04-06T05:38:05;12.85;;;8.98;;
44130;SDS011;29792;48.726;9.248;2023-04-06T05:40:32;13.55;;;10.32;;
44130;SDS011;29792;48.726;9.248;2023-04-06T05:42:58;10.85;;;9.23;;
44130;SDS011;29792;48.726;9.248;2023-04-06T05:45:23;12.23;;;10.13;;
44130;SDS011;29792;48.726;9.248;2023-04-06T05:47:48;12.15;;;8.95;;
44130;SDS011;29792;48.726;9.248;2023-04-06T05:50:14;12.98;;;8.98;;
44130;SDS011;29792;48.726;9.248;2023-04-06T05:52:40;12.35;;;10.02;;
44130;SDS011;29792;48.726;9.248;2023-04-06T05:55:08;12.98;;;9.20;;
44130;SDS011;29792;48.726;9.248;2023-04-06T05:57:34;13.35;;;9.90;;
44130;SDS011;29792;48.726;9.248;2023-04-06T05:59:59;14.57;;;11.15;;
44130;SDS011;29792;48.726;9.248;2023-04-06T06:02:24;13.88;;;10.75;;
44130;SDS011;29792;48.726;9.248;2023-04-06T06:04:50;11.65;;;9.02;;
44130;SDS011;29792;48.726;9.248;2023-04-06T06:07:15;17.13;;;10.52;;
44130;SDS011;29792;48.726;9.248;2023-04-06T06:09:41;16.60;;;9.75;;
44130;SDS011;29792;48.726;9.248;2023-04-06T06:12:06;11.65;;;8.52;;
44130;SDS011;29792;48.726;9.248;2023-04-06T06:14:32;11.73;;;8.82;;
44130;SDS011;29792;48.726;9.248;2023-04-06T06:16:57;11.38;;;8.30;;
44130;SDS011;29792;48.726;9.248;2023-04-06T06:19:22;16.65;;;13.20;;
44130;SDS011;29792;48.726;9.248;2023-04-06T06:21:48;14.73;;;9.85;;
44130;SDS011;29792;48.726;9.248;2023-04-06T06:24:13;15.60;;;9.45;;
44130;SDS011;29792;48.726;9.248;2023-04-06T06:26:38;18.38;;;9.68;;
44130;SDS011;29792;48.726;9.248;2023-04-06T06:29:04;13.10;;;9.20;;
44130;SDS011;29792;48.726;9.248;2023-04-06T06:31:30;10.85;;;9.68;;
44130;SDS011;29792;48.726;9.248;2023-04-06T06:33:56;14.18;;;10.05;;
44130;SDS011;29792;48.726;9.248;2023-04-06T06:36:21;15.55;;;11.23;;
44130;SDS011;29792;48.726;9.248;2023-04-06T06:38:46;11.55;;;10.00;;
44130;SDS011;29792;48.726;9.248;2023-04-06T06:41:12;16.52;;;9.88;;
44130;SDS011;29792;48.726;9.248;2023-04-06T06:43:37;13.23;;;10.93;;
44130;SDS011;29792;48.726;9.248;2023-04-06T06:46:02;16.83;;;10.35;;
44130;SDS011;29792;48.726;9.248;2023-04-06T06:48:29;14.77;;;9.00;;
44130;SDS011;29792;48.726;9.248;2023-04-06T06:50:54;14.48;;;8.95;;
44130;SDS011;29792;48.726;9.248;2023-04-06T06:53:20;12.57;;;9.85;;
44130;SDS011;29792;48.726;9.248;2023-04-06T06:55:45;13.52;;;10.55;;
44130;SDS011;29792;48.726;9.248;2023-04-06T06:58:10;14.30;;;10.05;;
44130;SDS011;29792;48.726;9.248;2023-04-06T07:00:36;13.95;;;9.68;;
44130;SDS011;29792;48.726;9.248;2023-04-06T07:03:01;14.32;;;9.93;;
44130;SDS011;29792;48.726;9.248;2023-04-06T07:05:26;13.85;;;10.60;;
44130;SDS011;29792;48.726;9.248;2023-04-06T07:07:52;15.27;;;11.05;;
44130;SDS011;29792;48.726;9.248;2023-04-06T07:10:17;18.42;;;9.75;;
44130;SDS011;29792;48.726;9.248;2023-04-06T07:12:42;15.85;;;11.05;;
44130;SDS011;29792;48.726;9.248;2023-04-06T07:15:08;13.05;;;10.27;;
44130;SDS011;29792;48.726;9.248;2023-04-06T07:17:33;13.40;;;10.25;;
44130;SDS011;29792;48.726;9.248;2023-04-06T07:19:59;11.63;;;9.82;;
44130;SDS011;29792;48.726;9.248;2023-04-06T07:22:24;15.23;;;11.07;;
44130;SDS011;29792;48.726;9.248;2023-04-06T07:24:49;17.13;;;9.77;;
44130;SDS011;29792;48.726;9.248;2023-04-06T07:27:15;12.68;;;8.93;;
44130;SDS011;29792;48.726;9.248;2023-04-06T07:29:41;13.60;;;11.27;;
44130;SDS011;29792;48.726;9.248;2023-04-06T07:32:06;14.95;;;8.65;;
44130;SDS011;29792;48.726;9.248;2023-04-06T07:34:32;10.82;;;9.27;;
44130;SDS011;29792;48.726;9.248;2023-04-06T07:36:57;11.00;;;8.95;;
44130;SDS011;29792;48.726;9.248;2023-04-06T07:39:22;13.48;;;10.80;;
44130;SDS011;29792;48.726;9.248;2023-04-06T07:41:48;14.20;;;9.98;;
44130;SDS011;29792;48.726;9.248;2023-04-06T07:44:13;11.93;;;9.93;;
44130;SDS011;29792;48.726;9.248;2023-04-06T07:46:38;12.85;;;10.13;;
44130;SDS011;29792;48.726;9.248;2023-04-06T07:49:04;16.17;;;10.18;;
44130;SDS011;29792;48.726;9.248;2023-04-06T07:51:29;10.43;;;8.77;;
44130;SDS011;29792;48.726;9.248;2023-04-06T07:53:54;11.48;;;9.38;;
44130;SDS011;29792;48.726;9.248;2023-04-06T07:56:20;14.70;;;9.90;;
44130;SDS011;29792;48.726;9.248;2023-04-06T07:58:45;12.25;;;9.50;;
44130;SDS011;29792;48.726;9.248;2023-04-06T08:01:11;12.93;;;9.05;;
44130;SDS011;29792;48.726;9.248;2023-04-06T08:03:36;12.45;;;9.70;;
44130;SDS011;29792;48.726;9.248;2023-04-06T08:06:02;11.98;;;9.35;;
44130;SDS011;29792;48.726;9.248;2023-04-06T08:08:27;13.32;;;9.13;;
44130;SDS011;29792;48.726;9.248;2023-04-06T08:10:53;10.43;;;9.25;;
44130;SDS011;29792;48.726;9.248;2023-04-06T08:13:18;10.27;;;8.07;;
44130;SDS011;29792;48.726;9.248;2023-04-06T08:15:43;9.95;;;8.15;;
44130;SDS011;29792;48.726;9.248;2023-04-06T08:18:09;11.25;;;8.32;;
44130;SDS011;29792;48.726;9.248;2023-04-06T08:20:34;14.02;;;10.10;;
44130;SDS011;29792;48.726;9.248;2023-04-06T08:23:00;9.68;;;8.60;;
44130;SDS011;29792;48.726;9.248;2023-04-06T08:25:25;9.57;;;8.23;;
44130;SDS011;29792;48.726;9.248;2023-04-06T08:27:50;11.32;;;8.30;;
44130;SDS011;29792;48.726;9.248;2023-04-06T08:30:16;10.23;;;8.73;;
44130;SDS011;29792;48.726;9.248;2023-04-06T08:32:41;11.40;;;8.00;;
44130;SDS011;29792;48.726;9.248;2023-04-06T08:35:07;7.82;;;7.03;;
44130;SDS011;29792;48.726;9.248;2023-04-06T08:37:32;10.02;;;8.23;;
44130;SDS011;29792;48.726;9.248;2023-04-06T08:39:58;8.60;;;6.82;;
44130;SDS011;29792;48.726;9.248;2023-04-06T08:42:25;9.05;;;7.20;;
44130;SDS011;29792;48.726;9.248;2023-04-06T08:44:51;9.07;;;6.82;;
44130;SDS011;29792;48.726;9.248;2023-04-06T08:47:17;8.57;;;7.15;;
44130;SDS011;29792;48.726;9.248;2023-04-06T08:49:42;8.60;;;7.05;;
44130;SDS011;29792;48.726;9.248;2023-04-06T08:52:10;9.50;;;7.95;;
44130;SDS011;29792;48.726;9.248;2023-04-06T08:54:36;7.70;;;6.68;;
44130;SDS011;29792;48.726;9.248;2023-04-06T08:57:02;8.90;;;7.20;;
44130;SDS011;29792;48.726;9.248;2023-04-06T08:59:27;14.80;;;8.00;;
44130;SDS011;29792;48.726;9.248;2023-04-06T09:01:53;18.38;;;9.18;;
44130;SDS011;29792;48.726;9.248;2023-04-06T09:04:20;9.23;;;7.68;;
44130;SDS011;29792;48.726;9.248;2023-04-06T09:06:45;10.45;;;7.07;;
44130;SDS011;29792;48.726;9.248;2023-04-06T09:09:11;9.60;;;7.80;;
44130;SDS011;29792;48.726;9.248;2023-04-06T09:11:49;9.00;;;7.07;;
44130;SDS011;29792;48.726;9.248;2023-04-06T09:14:16;8.98;;;7.40;;
44130;SDS011;29792;48.726;9.248;2023-04-06T09:16:43;8.75;;;7.55;;
44130;SDS011;29792;48.726;9.248;2023-04-06T09:19:10;7.75;;;6.97;;
44130;SDS011;29792;48.726;9.248;2023-04-06T09:21:37;7.32;;;6.57;;
44130;SDS011;29792;48.726;9.248;2023-04-06T09:24:06;8.57;;;7.68;;
44130;SDS011;29792;48.726;9.248;2023-04-06T09:26:32;9.52;;;8.27;;
44130;SDS011;29792;48.726;9.248;2023-04-06T09:29:08;9.52;;;7.90;;
44130;SDS011;29792;48.726;9.248;2023-04-06T09:31:34;8.73;;;7.13;;
44130;SDS011;29792;48.726;9.248;2023-04-06T09:33:59;10.13;;;7.60;;
44130;SDS011;29792;48.726;9.248;2023-04-06T09:36:32;9.13;;;7.57;;
44130;SDS011;29792;48.726;9.248;2023-04-06T09:38:59;10.85;;;7.45;;
44130;SDS011;29792;48.726;9.248;2023-04-06T09:41:28;10.02;;;7.50;;
44130;SDS011;29792;48.726;9.248;2023-04-06T09:44:04;9.50;;;7.43;;
44130;SDS011;29792;48.726;9.248;2023-04-06T09:46:35;8.27;;;7.00;;
44130;SDS011;29792;48.726;9.248;2023-04-06T09:49:02;9.23;;;8.32;;
44130;SDS011;29792;48.726;9.248;2023-04-06T09:51:29;9.65;;;7.70;;
44130;SDS011;29792;48.726;9.248;2023-04-06T09:53:56;10.02;;;7.75;;
44130;SDS011;29792;48.726;9.248;2023-04-06T09:56:26;11.98;;;7.63;;
44130;SDS011;29792;48.726;9.248;2023-04-06T09:58:54;5.38;;;4.88;;
44130;SDS011;29792;48.726;9.248;2023-04-06T10:01:22;8.07;;;6.47;;
44130;SDS011;29792;48.726;9.248;2023-04-06T10:04:01;9.52;;;6.63;;
44130;SDS011;29792;48.726;9.248;2023-04-06T10:06:35;10.55;;;8.05;;
44130;SDS011;29792;48.726;9.248;2023-04-06T10:09:02;7.38;;;6.13;;
44130;SDS011;29792;48.726;9.248;2023-04-06T10:11:32;7.63;;;6.18;;
44130;SDS011;29792;48.726;9.248;2023-04-06T10:13:58;6.35;;;5.00;;
44130;SDS011;29792;48.726;9.248;2023-04-06T10:16:25;16.48;;;6.25;;
44130;SDS011;29792;48.726;9.248;2023-04-06T10:18:52;7.93;;;6.03;;
44130;SDS011;29792;48.726;9.248;2023-04-06T10:21:23;6.43;;;4.20;;
44130;SDS011;29792;48.726;9.248;2023-04-06T10:23:52;5.03;;;4.20;;
44130;SDS011;29792;48.726;9.248;2023-04-06T10:26:22;3.78;;;3.30;;
44130;SDS011;29792;48.726;9.248;2023-04-06T10:28:48;6.30;;;4.40;;
44130;SDS011;29792;48.726;9.248;2023-04-06T10:31:15;5.38;;;4.05;;
44130;SDS011;29792;48.726;9.248;2023-04-06T10:33:40;8.15;;;4.93;;
44130;SDS011;29792;48.726;9.248;2023-04-06T10:36:12;5.25;;;4.15;;
44130;SDS011;29792;48.726;9.248;2023-04-06T10:38:40;9.48;;;7.55;;
44130;SDS011;29792;48.726;9.248;2023-04-06T10:41:06;5.15;;;4.47;;
44130;SDS011;29792;48.726;9.248;2023-04-06T10:43:35;4.93;;;4.45;;
44130;SDS011;29792;48.726;9.248;2023-04-06T10:46:02;5.95;;;5.30;;
44130;SDS011;29792;48.726;9.248;2023-04-06T10:48:41;7.80;;;4.70;;
44130;SDS011;29792;48.726;9.248;2023-04-06T10:51:11;6.35;;;4.15;;
44130;SDS011;29792;48.726;9.248;2023-04-06T10:53:38;6.28;;;4.75;;
44130;SDS011;29792;48.726;9.248;2023-04-06T10:56:09;7.20;;;5.05;;
44130;SDS011;29792;48.726;9.248;2023-04-06T10:58:38;5.50;;;4.60;;
44130;SDS011;29792;48.726;9.248;2023-04-06T11:01:08;4.32;;;3.60;;
44130;SDS011;29792;48.726;9.248;2023-04-06T11:03:49;5.75;;;4.75;;
44130;SDS011;29792;48.726;9.248;2023-04-06T11:06:18;4.50;;;3.38;;
44130;SDS011;29792;48.726;9.248;2023-04-06T11:08:47;5.00;;;4.43;;
44130;SDS011;29792;48.726;9.248;2023-04-06T11:11:13;4.13;;;3.70;;
44130;SDS011;29792;48.726;9.248;2023-04-06T11:13:41;4.10;;;3.50;;
44130;SDS011;29792;48.726;9.248;2023-04-06T11:16:11;5.35;;;4.35;;
44130;SDS011;29792;48.726;9.248;2023-04-06T11:18:46;4.30;;;3.65;;
44130;SDS011;29792;48.726;9.248;2023-04-06T11:21:34;3.80;;;3.40;;
44130;SDS011;29792;48.726;9.248;2023-04-06T11:26:39;5.72;;;3.20;;
44130;SDS011;29792;48.726;9.248;2023-04-06T11:29:26;2.97;;;2.72;;
44130;SDS011;29792;48.726;9.248;2023-04-06T11:31:57;3.35;;;2.53;;
44130;SDS011;29792;48.726;9.248;2023-04-06T11:34:24;3.92;;;3.30;;
44130;SDS011;29792;48.726;9.248;2023-04-06T11:37:03;2.72;;;2.30;;
44130;SDS011;29792;48.726;9.248;2023-04-06T11:39:47;3.25;;;2.70;;
44130;SDS011;29792;48.726;9.248;2023-04-06T11:42:21;2.78;;;2.47;;
44130;SDS011;29792;48.726;9.248;2023-04-06T11:44:57;3.60;;;2.80;;
44130;SDS011;29792;48.726;9.248;2023-04-06T11:49:56;2.85;;;2.55;;
44130;SDS011;29792;48.726;9.248;2023-04-06T11:52:33;3.38;;;2.60;;
44130;SDS011;29792;48.726;9.248;2023-04-06T11:55:09;3.08;;;2.63;;
44130;SDS011;29792;48.726;9.248;2023-04-06T11:57:39;2.60;;;2.40;;
44130;SDS011;29792;48.726;9.248;2023-04-06T12:00:05;3.60;;;3.30;;
44130;SDS011;29792;48.726;9.248;2023-04-06T12:02:31;9.18;;;4.32;;
44130;SDS011;29792;48.726;9.248;2023-04-06T12:04:57;4.45;;;3.42;;
44130;SDS011;29792;48.726;9.248;2023-04-06T12:07:22;3.95;;;3.55;;
44130;SDS011;29792;48.726;9.248;2023-04-06T12:09:47;4.55;;;3.63;;
44130;SDS011;29792;48.726;9.248;2023-04-06T12:12:13;6.20;;;3.78;;
44130;SDS011;29792;48.726;9.248;2023-04-06T12:14:38;4.65;;;4.03;;
44130;SDS011;29792;48.726;9.248;2023-04-06T12:17:03;4.07;;;3.67;;
44130;SDS011;29792;48.726;9.248;2023-04-06T12:19:28;4.57;;;3.88;;
44130;SDS011;29792;48.726;9.248;2023-04-06T12:21:54;5.07;;;3.78;;
44130;SDS011;29792;48.726;9.248;2023-04-06T12:24:19;5.03;;;3.85;;
44130;SDS011;29792;48.726;9.248;2023-04-06T12:26:44;4.07;;;3.67;;
44130;SDS011;29792;48.726;9.248;2023-04-06T12:29:10;5.65;;;4.32;;
44130;SDS011;29792;48.726;9.248;2023-04-06T12:31:36;6.95;;;4.57;;
44130;SDS011;29792;48.726;9.248;2023-04-06T12:34:03;5.70;;;3.60;;
44130;SDS011;29792;48.726;9.248;2023-04-06T12:36:28;6.40;;;3.95;;
44130;SDS011;29792;48.726;9.248;2023-04-06T12:38:54;6.20;;;4.30;;
44130;SDS011;29792;48.726;9.248;2023-04-06T12:41:20;4.70;;;3.67;;
44130;SDS011;29792;48.726;9.248;2023-04-06T12:43:45;4.72;;;4.15;;
44130;SDS011;29792;48.726;9.248;2023-04-06T12:46:11;6.35;;;4.35;;
44130;SDS011;29792;48.726;9.248;2023-04-06T12:48:37;5.05;;;3.80;;
44130;SDS011;29792;48.726;9.248;2023-04-06T12:51:03;4.65;;;3.45;;
44130;SDS011;29792;48.726;9.248;2023-04-06T12:53:30;6.35;;;3.65;;
44130;SDS011;29792;48.726;9.248;2023-04-06T12:55:57;5.82;;;4.18;;
44130;SDS011;29792;48.726;9.248;2023-04-06T12:58:23;5.32;;;4.03;;
44130;SDS011;29792;48.726;9.248;2023-04-06T13:00:49;6.82;;;3.63;;
44130;SDS011;29792;48.726;9.248;2023-04-06T13:03:15;4.60;;;3.45;;
44130;SDS011;29792;48.726;9.248;2023-04-06T13:05:44;5.03;;;3.55;;
44130;SDS011;29792;48.726;9.248;2023-04-06T13:08:10;4.88;;;3.70;;
44130;SDS011;29792;48.726;9.248;2023-04-06T13:10:36;4.80;;;3.95;;
44130;SDS011;29792;48.726;9.248;2023-04-06T13:13:01;6.07;;;3.50;;
44130;SDS011;29792;48.726;9.248;2023-04-06T13:15:27;5.05;;;3.33;;
44130;SDS011;29792;48.726;9.248;2023-04-06T13:17:52;5.72;;;3.38;;
44130;SDS011;29792;48.726;9.248;2023-04-06T13:20:17;4.78;;;3.33;;
44130;SDS011;29792;48.726;9.248;2023-04-06T13:22:43;4.78;;;3.78;;
44130;SDS011;29792;48.726;9.248;2023-04-06T13:25:08;8.75;;;3.72;;
44130;SDS011;29792;48.726;9.248;2023-04-06T13:27:33;5.13;;;3.85;;
44130;SDS011;29792;48.726;9.248;2023-04-06T13:30:00;4.75;;;3.25;;
44130;SDS011;29792;48.726;9.248;2023-04-06T13:32:26;6.20;;;4.07;;
44130;SDS011;29792;48.726;9.248;2023-04-06T13:34:53;6.18;;;3.85;;
44130;SDS011;29792;48.726;9.248;2023-04-06T13:37:19;5.18;;;3.25;;
44130;SDS011;29792;48.726;9.248;2023-04-06T13:39:45;5.80;;;3.58;;
44130;SDS011;29792;48.726;9.248;2023-04-06T13:42:10;4.90;;;3.78;;
44130;SDS011;29792;48.726;9.248;2023-04-06T13:44:35;3.80;;;3.40;;
44130;SDS011;29792;48.726;9.248;2023-04-06T13:47:00;4.88;;;3.55;;
44130;SDS011;29792;48.726;9.248;2023-04-06T13:49:26;4.85;;;3.67;;
44130;SDS011;29792;48.726;9.248;2023-04-06T13:51:51;6.07;;;3.80;;
44130;SDS011;29792;48.726;9.248;2023-04-06T13:54:16;4.03;;;3.58;;
44130;SDS011;29792;48.726;9.248;2023-04-06T13:56:42;6.25;;;3.60;;
44130;SDS011;29792;48.726;9.248;2023-04-06T13:59:07;5.85;;;3.45;;
44130;SDS011;29792;48.726;9.248;2023-04-06T14:01:32;3.72;;;3.13;;
44130;SDS011;29792;48.726;9.248;2023-04-06T14:03:57;7.82;;;5.35;;
44130;SDS011;29792;48.726;9.248;2023-04-06T14:06:23;4.20;;;3.38;;
44130;SDS011;29792;48.726;9.248;2023-04-06T14:08:48;27.98;;;4.88;;
44130;SDS011;29792;48.726;9.248;2023-04-06T14:11:13;4.07;;;3.45;;
44130;SDS011;29792;48.726;9.248;2023-04-06T14:13:39;5.28;;;3.25;;
44130;SDS011;29792;48.726;9.248;2023-04-06T14:16:05;7.63;;;3.47;;
44130;SDS011;29792;48.726;9.248;2023-04-06T14:18:31;4.57;;;3.53;;
44130;SDS011;29792;48.726;9.248;2023-04-06T14:20:58;3.88;;;3.20;;
44130;SDS011;29792;48.726;9.248;2023-04-06T14:23:23;4.78;;;4.15;;
44130;SDS011;29792;48.726;9.248;2023-04-06T14:25:51;5.07;;;3.83;;
44130;SDS011;29792;48.726;9.248;2023-04-06T14:28:17;4.35;;;3.95;;
44130;SDS011;29792;48.726;9.248;2023-04-06T14:30:42;6.05;;;3.45;;
44130;SDS011;29792;48.726;9.248;2023-04-06T14:33:08;7.22;;;4.43;;
44130;SDS011;29792;48.726;9.248;2023-04-06T14:35:33;4.05;;;3.08;;
44130;SDS011;29792;48.726;9.248;2023-04-06T14:37:58;5.15;;;3.42;;